createdAt,value
2022-11-27T00:01:51.221Z,2.43
2022-11-27T00:04:20.191Z,2.41
2022-11-27T00:06:49.301Z,2.50
2022-11-27T00:09:18.868Z,2.47
2022-11-27T00:11:47.910Z,2.49
2022-11-27T00:14:19.303Z,2.50
2022-11-27T00:16:48.295Z,2.37
2022-11-27T00:19:17.545Z,2.50
2022-11-27T00:21:46.683Z,2.48
2022-11-27T00:24:15.959Z,2.54
2022-11-27T00:26:46.977Z,2.57
2022-11-27T00:29:17.440Z,2.59
2022-11-27T00:31:46.419Z,2.54
2022-11-27T00:34:15.686Z,2.55
2022-11-27T00:36:48.131Z,2.51
2022-11-27T00:39:17.430Z,2.52
2022-11-27T00:41:46.801Z,2.50
2022-11-27T00:44:15.885Z,2.49
2022-11-27T00:46:47.830Z,2.42
2022-11-27T00:49:17.168Z,2.40
2022-11-27T00:51:46.379Z,2.44
2022-11-27T00:54:15.508Z,2.40
2022-11-27T00:56:44.774Z,2.43
2022-11-27T00:59:14.042Z,2.41
2022-11-27T01:01:44.700Z,2.40
2022-11-27T01:04:16.924Z,2.41
2022-11-27T01:06:46.843Z,2.45
2022-11-27T01:09:16.966Z,2.44
2022-11-27T01:11:46.059Z,2.38
2022-11-27T01:14:18.301Z,2.41
2022-11-27T01:16:47.368Z,2.38
2022-11-27T01:19:18.478Z,2.37
2022-11-27T01:21:48.463Z,2.40
2022-11-27T01:24:18.223Z,2.37
2022-11-27T01:26:47.641Z,2.44
2022-11-27T01:29:16.665Z,2.43
2022-11-27T01:31:45.938Z,2.49
2022-11-27T01:34:19.377Z,2.57
2022-11-27T01:36:48.432Z,2.61
2022-11-27T01:39:19.819Z,2.67
2022-11-27T01:41:49.856Z,2.69
2022-11-27T01:44:54.498Z,2.66
2022-11-27T01:47:33.041Z,2.75
2022-11-27T01:50:11.938Z,2.79
2022-11-27T01:52:46.183Z,2.84
2022-11-27T01:55:20.680Z,2.79
2022-11-27T01:57:52.819Z,2.86
2022-11-27T02:00:22.992Z,2.88
2022-11-27T02:02:52.031Z,2.86
2022-11-27T02:05:25.320Z,2.85
2022-11-27T02:07:55.176Z,2.84
2022-11-27T02:10:29.953Z,2.84
2022-11-27T02:13:05.463Z,2.86
2022-11-27T02:15:40.198Z,2.89
2022-11-27T02:18:18.054Z,2.96
2022-11-27T02:20:53.440Z,3.00
2022-11-27T02:23:55.500Z,2.97
2022-11-27T02:27:03.765Z,2.97
2022-11-27T02:29:37.261Z,2.88
2022-11-27T02:32:12.669Z,2.96
2022-11-27T02:34:48.920Z,2.94
2022-11-27T02:37:22.555Z,2.97
2022-11-27T02:39:58.778Z,2.99
2022-11-27T02:42:30.532Z,2.99
2022-11-27T02:45:05.487Z,2.90
2022-11-27T02:47:35.368Z,3.00
2022-11-27T02:50:05.247Z,3.06
2022-11-27T02:52:34.822Z,3.05
2022-11-27T02:55:09.975Z,3.06
2022-11-27T02:57:45.497Z,3.06
2022-11-27T03:00:17.674Z,3.02
2022-11-27T03:02:51.954Z,3.08
2022-11-27T03:05:24.174Z,3.06
2022-11-27T03:07:57.933Z,3.11
2022-11-27T03:10:38.298Z,3.11
2022-11-27T03:13:07.401Z,3.16
2022-11-27T03:15:46.842Z,3.14
2022-11-27T03:18:25.365Z,3.11
2022-11-27T03:21:03.018Z,3.12
2022-11-27T03:23:32.402Z,3.10
2022-11-27T03:26:01.617Z,3.13
2022-11-27T03:28:31.980Z,3.12
2022-11-27T03:31:03.153Z,3.17
2022-11-27T03:33:32.431Z,3.17
2022-11-27T03:36:01.600Z,3.13
2022-11-27T03:38:30.843Z,3.10
2022-11-27T03:41:06.903Z,3.24
2022-11-27T03:43:43.676Z,3.23
2022-11-27T03:46:24.093Z,3.25
2022-11-27T03:49:00.711Z,3.18
2022-11-27T03:51:38.925Z,3.15
2022-11-27T03:54:19.453Z,3.13
2022-11-27T03:56:55.786Z,3.17
2022-11-27T03:59:29.147Z,3.14
2022-11-27T04:01:59.883Z,3.15
2022-11-27T04:04:29.257Z,3.15
2022-11-27T04:06:58.328Z,3.12
2022-11-27T04:09:27.386Z,3.11
2022-11-27T04:11:56.482Z,3.04
2022-11-27T04:14:25.996Z,3.09
2022-11-27T04:16:54.987Z,3.05
2022-11-27T04:19:25.456Z,3.04
2022-11-27T04:21:54.429Z,3.03
2022-11-27T04:24:24.143Z,3.07
2022-11-27T04:26:53.443Z,3.04
2022-11-27T04:29:22.492Z,3.06
2022-11-27T04:31:52.105Z,3.05
2022-11-27T04:34:21.410Z,3.05
2022-11-27T04:36:51.858Z,3.08
2022-11-27T04:39:20.894Z,2.97
2022-11-27T04:41:50.019Z,3.04
2022-11-27T04:44:19.242Z,2.98
2022-11-27T04:46:48.324Z,3.01
2022-11-27T04:49:17.623Z,2.94
2022-11-27T04:51:46.638Z,2.95
2022-11-27T04:54:17.128Z,2.97
2022-11-27T04:56:46.384Z,2.91
2022-11-27T04:59:15.566Z,2.97
2022-11-27T05:01:44.668Z,2.96
2022-11-27T05:04:13.962Z,2.96
2022-11-27T05:06:43.070Z,2.97
2022-11-27T05:09:12.137Z,2.97
2022-11-27T05:11:42.650Z,2.97
2022-11-27T05:14:18.403Z,3.01
2022-11-27T05:16:50.341Z,2.97
2022-11-27T05:19:21.683Z,3.00
2022-11-27T05:21:51.573Z,2.97
2022-11-27T05:24:22.336Z,3.03
2022-11-27T05:26:53.045Z,3.05
2022-11-27T05:29:22.100Z,3.00
2022-11-27T05:31:51.541Z,3.01
2022-11-27T05:34:20.883Z,3.07
2022-11-27T05:36:49.830Z,3.08
2022-11-27T05:39:18.941Z,3.14
2022-11-27T05:41:47.967Z,3.20
2022-11-27T05:44:18.626Z,3.16
2022-11-27T05:46:47.709Z,3.19
2022-11-27T05:49:18.115Z,3.24
2022-11-27T05:51:51.436Z,3.21
2022-11-27T05:54:21.437Z,3.29
2022-11-27T05:56:50.602Z,3.33
2022-11-27T05:59:21.242Z,3.34
2022-11-27T06:01:50.884Z,3.38
2022-11-27T06:04:20.679Z,3.23
2022-11-27T06:06:49.766Z,3.29
2022-11-27T06:09:18.790Z,3.38
2022-11-27T06:11:47.751Z,3.45
2022-11-27T06:14:16.741Z,3.45
2022-11-27T06:16:47.287Z,3.49
2022-11-27T06:19:16.351Z,3.44
2022-11-27T06:21:46.768Z,3.33
2022-11-27T06:24:15.872Z,3.40
2022-11-27T06:26:44.873Z,3.51
2022-11-27T06:29:14.291Z,3.53
2022-11-27T06:31:43.718Z,3.62
2022-11-27T06:34:14.433Z,3.42
2022-11-27T06:36:57.305Z,3.57
2022-11-27T06:39:26.342Z,3.34
2022-11-27T06:41:55.458Z,3.50
2022-11-27T06:44:24.614Z,3.42
2022-11-27T06:46:55.163Z,3.44
2022-11-27T06:49:34.447Z,3.62
2022-11-27T06:52:03.570Z,3.70
2022-11-27T06:54:32.685Z,3.77
2022-11-27T06:57:02.041Z,3.87
2022-11-27T06:59:31.154Z,3.93
2022-11-27T07:02:00.523Z,3.96
2022-11-27T07:04:29.522Z,4.10
2022-11-27T07:07:00.194Z,4.12
2022-11-27T07:09:29.249Z,4.23
2022-11-27T07:11:58.225Z,4.26
2022-11-27T07:14:27.396Z,4.37
2022-11-27T07:16:56.523Z,4.53
2022-11-27T07:19:25.868Z,4.59
2022-11-27T07:21:55.236Z,4.58
2022-11-27T07:24:25.871Z,4.44
2022-11-27T07:26:55.246Z,4.54
2022-11-27T07:29:24.552Z,4.63
2022-11-27T07:31:53.687Z,4.68
2022-11-27T07:34:22.941Z,4.68
2022-11-27T07:36:53.009Z,4.72
2022-11-27T07:39:34.089Z,4.83
2022-11-27T07:42:36.901Z,4.94
2022-11-27T07:45:02.053Z,4.95
2022-11-27T07:47:32.574Z,4.95
2022-11-27T07:50:09.055Z,4.99
2022-11-27T07:52:41.952Z,5.06
2022-11-27T07:55:20.634Z,5.13
2022-11-27T07:57:51.189Z,5.09
2022-11-27T08:00:21.370Z,5.21
2022-11-27T08:02:50.733Z,5.31
2022-11-27T08:05:19.893Z,5.34
2022-11-27T08:07:49.085Z,5.40
2022-11-27T08:10:18.375Z,5.45
2022-11-27T08:12:47.589Z,5.44
2022-11-27T08:15:18.418Z,5.39
2022-11-27T08:17:48.090Z,5.42
2022-11-27T08:20:17.473Z,5.36
2022-11-27T08:22:46.598Z,5.35
2022-11-27T08:25:16.819Z,5.28
2022-11-27T08:27:48.421Z,5.27
2022-11-27T08:30:19.401Z,5.29
2022-11-27T08:32:48.667Z,5.34
2022-11-27T08:35:18.176Z,5.38
2022-11-27T08:37:47.417Z,5.42
2022-11-27T08:40:16.753Z,5.44
2022-11-27T08:42:45.964Z,5.35
2022-11-27T08:45:15.000Z,5.52
2022-11-27T08:47:45.502Z,5.57
2022-11-27T08:50:14.569Z,5.61
2022-11-27T08:52:44.021Z,5.61
2022-11-27T08:55:13.196Z,5.58
2022-11-27T08:57:42.515Z,5.62
2022-11-27T09:00:13.876Z,5.69
2022-11-27T09:02:45.091Z,5.70
2022-11-27T09:05:15.082Z,5.81
2022-11-27T09:07:44.486Z,5.89
2022-11-27T09:10:13.995Z,5.94
2022-11-27T09:12:44.844Z,6.04
2022-11-27T09:15:14.601Z,6.06
2022-11-27T09:17:45.228Z,6.11
2022-11-27T09:20:16.427Z,5.87
2022-11-27T09:22:45.502Z,5.99
2022-11-27T09:25:14.780Z,6.17
2022-11-27T09:27:44.312Z,5.95
2022-11-27T09:30:14.666Z,6.07
2022-11-27T09:32:45.209Z,6.05
2022-11-27T09:35:15.115Z,6.19
2022-11-27T09:37:44.475Z,6.31
2022-11-27T09:40:18.262Z,6.42
2022-11-27T09:42:54.474Z,6.47
2022-11-27T09:45:25.811Z,6.56
2022-11-27T09:48:00.961Z,6.63
2022-11-27T09:50:33.435Z,6.71
2022-11-27T09:53:08.688Z,6.74
2022-11-27T09:55:42.227Z,6.71
2022-11-27T09:58:20.213Z,6.77
2022-11-27T10:00:50.120Z,6.73
2022-11-27T10:03:26.235Z,6.77
2022-11-27T10:06:07.658Z,6.86
2022-11-27T10:08:48.420Z,6.88
2022-11-27T10:11:29.172Z,6.87
2022-11-27T10:14:17.318Z,6.93
2022-11-27T10:16:52.570Z,6.79
2022-11-27T10:19:42.137Z,6.92
2022-11-27T10:22:21.090Z,6.74
2022-11-27T10:25:04.972Z,6.72
2022-11-27T10:27:40.252Z,6.67
2022-11-27T10:30:17.707Z,6.42
2022-11-27T10:32:56.678Z,6.79
2022-11-27T10:35:30.645Z,6.84
2022-11-27T10:38:07.271Z,7.04
2022-11-27T10:40:42.467Z,7.07
2022-11-27T10:43:17.528Z,7.14
2022-11-27T10:45:51.562Z,6.99
2022-11-27T10:48:21.585Z,6.90
2022-11-27T10:50:52.312Z,7.04
2022-11-27T10:53:28.214Z,7.08
2022-11-27T10:56:21.637Z,6.73
2022-11-27T10:58:56.648Z,6.87
2022-11-27T11:01:28.476Z,6.92
2022-11-27T11:04:24.691Z,7.01
2022-11-27T11:06:59.334Z,6.92
2022-11-27T11:09:30.973Z,7.01
2022-11-27T11:12:09.238Z,6.90
2022-11-27T11:14:39.183Z,6.78
2022-11-27T11:17:18.618Z,6.64
2022-11-27T11:19:47.932Z,6.66
2022-11-27T11:22:18.837Z,6.65
2022-11-27T11:24:49.672Z,6.63
2022-11-27T11:27:22.676Z,6.45
2022-11-27T11:29:53.002Z,6.37
2022-11-27T11:32:27.182Z,6.39
2022-11-27T11:35:01.290Z,6.35
2022-11-27T11:37:35.088Z,6.32
2022-11-27T11:40:13.187Z,6.54
2022-11-27T11:42:54.303Z,6.60
2022-11-27T11:45:31.310Z,6.41
2022-11-27T11:48:04.010Z,6.53
2022-11-27T11:50:41.325Z,6.37
2022-11-27T11:53:20.042Z,6.27
2022-11-27T11:56:02.633Z,6.39
2022-11-27T11:58:53.845Z,6.35
2022-11-27T12:01:39.017Z,6.25
2022-11-27T12:04:35.880Z,6.35
2022-11-27T12:07:19.991Z,6.50
2022-11-27T12:09:59.262Z,6.67
2022-11-27T12:12:43.330Z,6.83
2022-11-27T12:15:22.610Z,6.88
2022-11-27T12:18:01.357Z,6.84
2022-11-27T12:20:48.663Z,6.76
2022-11-27T12:23:43.444Z,6.90
2022-11-27T12:26:28.253Z,6.83
2022-11-27T12:29:30.540Z,6.68
2022-11-27T12:32:34.735Z,6.70
2022-11-27T12:35:23.697Z,6.37
2022-11-27T12:38:01.536Z,6.57
2022-11-27T12:40:46.335Z,6.49
2022-11-27T12:43:26.325Z,6.40
2022-11-27T12:46:01.987Z,6.45
2022-11-27T12:48:36.860Z,6.50
2022-11-27T12:51:11.062Z,6.37
2022-11-27T12:53:45.108Z,6.51
2022-11-27T12:56:22.792Z,6.58
2022-11-27T12:59:00.924Z,6.60
2022-11-27T13:01:36.854Z,6.70
2022-11-27T13:04:19.745Z,6.60
2022-11-27T13:06:57.331Z,6.60
2022-11-27T13:09:42.362Z,6.48
2022-11-27T13:12:19.179Z,6.55
2022-11-27T13:14:57.946Z,6.36
2022-11-27T13:17:38.817Z,6.41
2022-11-27T13:20:15.952Z,6.59
2022-11-27T13:22:46.708Z,6.57
2022-11-27T13:25:17.265Z,6.71
2022-11-27T13:27:50.304Z,6.77
2022-11-27T13:30:23.240Z,6.80
2022-11-27T13:32:56.515Z,6.69
2022-11-27T13:35:29.903Z,6.75
2022-11-27T13:38:08.063Z,6.76
2022-11-27T13:40:42.779Z,6.86
2022-11-27T13:43:24.554Z,6.90
2022-11-27T13:46:04.738Z,6.96
2022-11-27T13:48:35.991Z,6.98
2022-11-27T13:51:07.585Z,7.02
2022-11-27T13:53:38.806Z,7.03
2022-11-27T13:56:09.394Z,7.01
2022-11-27T13:58:41.085Z,7.08
2022-11-27T14:01:17.340Z,7.00
2022-11-27T14:03:47.899Z,7.06
2022-11-27T14:06:25.272Z,7.10
2022-11-27T14:09:06.533Z,7.08
2022-11-27T14:11:41.652Z,7.06
2022-11-27T14:14:18.076Z,6.98
2022-11-27T14:16:58.181Z,6.98
2022-11-27T14:19:34.900Z,6.99
2022-11-27T14:22:15.837Z,6.89
2022-11-27T14:24:46.885Z,6.84
2022-11-27T14:27:22.246Z,6.84
2022-11-27T14:29:53.566Z,6.89
2022-11-27T14:32:24.235Z,6.82
2022-11-27T14:34:53.556Z,6.77
2022-11-27T14:37:27.255Z,6.73
2022-11-27T14:39:57.022Z,6.75
2022-11-27T14:42:30.079Z,6.75
2022-11-27T14:45:04.919Z,6.73
2022-11-27T14:47:36.878Z,6.69
2022-11-27T14:50:07.825Z,6.64
2022-11-27T14:52:37.534Z,6.67
2022-11-27T14:55:10.804Z,6.69
2022-11-27T14:57:40.341Z,6.66
2022-11-27T15:00:37.866Z,6.67
2022-11-27T15:03:12.610Z,6.63
2022-11-27T15:05:45.270Z,6.64
2022-11-27T15:08:17.157Z,6.67
2022-11-27T15:10:47.088Z,6.62
2022-11-27T15:13:24.584Z,6.68
2022-11-27T15:16:02.693Z,6.67
2022-11-27T15:18:41.073Z,6.66
2022-11-27T15:21:17.506Z,6.53
2022-11-27T15:23:48.111Z,6.62
2022-11-27T15:26:32.544Z,6.65
2022-11-27T15:29:03.072Z,6.70
2022-11-27T15:31:35.321Z,6.58
2022-11-27T15:34:08.057Z,6.54
2022-11-27T15:36:43.406Z,6.57
2022-11-27T15:39:23.350Z,6.46
2022-11-27T15:41:58.103Z,6.44
2022-11-27T15:44:29.517Z,6.43
2022-11-27T15:47:01.321Z,6.29
2022-11-27T15:49:33.044Z,6.18
2022-11-27T15:52:02.795Z,6.09
2022-11-27T15:54:32.327Z,6.08
2022-11-27T15:57:01.973Z,5.88
2022-11-27T15:59:44.147Z,5.95
2022-11-27T16:02:17.777Z,5.84
2022-11-27T16:04:49.363Z,5.91
2022-11-27T16:07:20.019Z,5.80
2022-11-27T16:09:50.200Z,5.88
2022-11-27T16:12:20.146Z,5.90
2022-11-27T16:14:49.487Z,5.91
2022-11-27T16:17:20.128Z,6.01
2022-11-27T16:19:52.094Z,6.07
2022-11-27T16:22:21.363Z,6.12
2022-11-27T16:24:50.681Z,6.19
2022-11-27T16:27:37.387Z,6.22
2022-11-27T16:30:09.486Z,6.09
2022-11-27T16:32:41.505Z,5.97
2022-11-27T16:35:12.353Z,5.89
2022-11-27T16:37:43.344Z,6.01
2022-11-27T16:40:19.559Z,6.10
2022-11-27T16:42:49.927Z,6.03
2022-11-27T16:45:20.849Z,5.97
2022-11-27T16:47:51.096Z,5.91
2022-11-27T16:50:21.820Z,5.97
2022-11-27T16:52:54.576Z,5.90
2022-11-27T16:55:32.721Z,5.87
2022-11-27T16:58:02.053Z,5.81
2022-11-27T17:00:32.472Z,5.83
2022-11-27T17:03:01.751Z,5.82
2022-11-27T17:05:32.496Z,5.66
2022-11-27T17:08:01.615Z,5.61
2022-11-27T17:10:31.613Z,5.58
2022-11-27T17:13:01.110Z,5.55
2022-11-27T17:15:30.823Z,5.49
2022-11-27T17:18:01.215Z,5.42
2022-11-27T17:20:32.810Z,5.45
2022-11-27T17:23:03.144Z,5.38
2022-11-27T17:25:32.959Z,5.31
2022-11-27T17:28:02.304Z,5.37
2022-11-27T17:30:39.163Z,5.45
2022-11-27T17:33:09.646Z,5.43
2022-11-27T17:35:41.348Z,5.42
2022-11-27T17:38:10.569Z,5.39
2022-11-27T17:40:41.155Z,5.41
2022-11-27T17:43:11.375Z,5.41
2022-11-27T17:45:42.613Z,5.33
2022-11-27T17:48:12.900Z,5.43
2022-11-27T17:50:46.171Z,5.32
2022-11-27T17:53:17.068Z,5.31
2022-11-27T17:55:47.021Z,5.21
2022-11-27T17:58:16.813Z,5.05
2022-11-27T18:00:47.679Z,5.13
2022-11-27T18:03:17.187Z,4.98
2022-11-27T18:05:48.123Z,5.01
2022-11-27T18:08:17.502Z,4.95
2022-11-27T18:10:47.350Z,4.95
2022-11-27T18:13:17.021Z,4.87
2022-11-27T18:15:47.653Z,4.83
2022-11-27T18:18:17.896Z,4.67
2022-11-27T18:21:10.966Z,4.73
2022-11-27T18:24:14.670Z,4.73
2022-11-27T18:27:00.466Z,4.73
2022-11-27T18:29:32.233Z,4.71
2022-11-27T18:32:02.088Z,4.70
2022-11-27T18:34:32.690Z,4.68
2022-11-27T18:37:07.379Z,4.63
2022-11-27T18:39:37.564Z,4.55
2022-11-27T18:42:08.121Z,4.53
2022-11-27T18:44:44.320Z,4.28
2022-11-27T18:47:17.187Z,4.37
2022-11-27T18:49:49.708Z,4.27
2022-11-27T18:52:21.284Z,4.46
2022-11-27T18:54:51.856Z,4.41
2022-11-27T18:57:25.486Z,4.43
2022-11-27T18:59:57.233Z,4.53
2022-11-27T19:02:27.357Z,4.52
2022-11-27T19:04:57.597Z,4.51
2022-11-27T19:07:28.968Z,4.27
2022-11-27T19:09:59.163Z,4.38
2022-11-27T19:12:29.525Z,4.37
2022-11-27T19:15:00.077Z,4.50
2022-11-27T19:17:33.590Z,4.50
2022-11-27T19:20:17.366Z,4.65
2022-11-27T19:22:48.920Z,4.67
2022-11-27T19:25:18.527Z,4.62
2022-11-27T19:27:48.341Z,4.75
2022-11-27T19:30:18.221Z,4.83
2022-11-27T19:32:48.512Z,4.83
2022-11-27T19:35:23.062Z,4.78
2022-11-27T19:37:56.411Z,4.83
2022-11-27T19:40:36.017Z,4.74
2022-11-27T19:43:07.284Z,4.60
2022-11-27T19:45:39.411Z,4.59
2022-11-27T19:48:11.249Z,4.55
2022-11-27T19:50:42.088Z,4.59
2022-11-27T19:53:14.206Z,4.55
2022-11-27T19:55:45.357Z,4.62
2022-11-27T19:58:16.308Z,4.48
2022-11-27T20:00:46.813Z,4.65
2022-11-27T20:03:28.617Z,4.64
2022-11-27T20:06:05.426Z,4.50
2022-11-27T20:08:39.575Z,4.40
2022-11-27T20:11:15.295Z,4.48
2022-11-27T20:13:46.211Z,4.51
2022-11-27T20:16:20.880Z,4.53
2022-11-27T20:18:53.426Z,4.41
2022-11-27T20:21:30.677Z,4.44
2022-11-27T20:24:15.321Z,4.37
2022-11-27T20:26:49.004Z,4.32
2022-11-27T20:29:21.002Z,4.26
2022-11-27T20:31:52.687Z,4.32
2022-11-27T20:34:24.937Z,4.24
2022-11-27T20:36:57.588Z,4.40
2022-11-27T20:39:30.623Z,4.33
2022-11-27T20:42:02.347Z,4.18
2022-11-27T20:44:33.019Z,4.09
2022-11-27T20:47:03.180Z,4.14
2022-11-27T20:49:34.362Z,4.21
2022-11-27T20:52:06.244Z,4.19
2022-11-27T20:54:42.601Z,4.21
2022-11-27T20:57:14.554Z,4.22
2022-11-27T20:59:44.780Z,4.31
2022-11-27T21:02:14.996Z,4.36
2022-11-27T21:04:44.916Z,4.50
2022-11-27T21:07:15.926Z,4.42
2022-11-27T21:09:46.633Z,4.41
2022-11-27T21:12:17.034Z,4.46
2022-11-27T21:14:46.788Z,4.44
2022-11-27T21:17:16.149Z,4.51
2022-11-27T21:19:45.629Z,4.49
2022-11-27T21:22:14.772Z,4.34
2022-11-27T21:24:46.622Z,4.48
2022-11-27T21:27:15.771Z,4.56
2022-11-27T21:29:45.221Z,4.57
2022-11-27T21:32:15.010Z,4.45
2022-11-27T21:34:44.882Z,4.60
2022-11-27T21:37:14.032Z,4.67
2022-11-27T21:39:44.890Z,4.57
2022-11-27T21:42:18.379Z,4.54
2022-11-27T21:44:47.860Z,4.58
2022-11-27T21:47:16.986Z,4.56
2022-11-27T21:49:46.149Z,4.56
2022-11-27T21:52:15.402Z,4.52
2022-11-27T21:54:46.764Z,4.61
2022-11-27T21:57:19.947Z,4.56
2022-11-27T21:59:49.247Z,4.50
2022-11-27T22:02:18.489Z,4.44
2022-11-27T22:04:48.332Z,4.45
2022-11-27T22:07:17.473Z,4.39
2022-11-27T22:09:46.616Z,4.41
2022-11-27T22:12:15.685Z,4.27
2022-11-27T22:14:46.479Z,4.25
2022-11-27T22:17:16.673Z,4.28
2022-11-27T22:19:46.094Z,4.33
2022-11-27T22:22:16.311Z,4.33
2022-11-27T22:24:45.922Z,4.20
2022-11-27T22:27:15.009Z,4.32
2022-11-27T22:29:45.500Z,4.33
2022-11-27T22:32:14.606Z,4.38
2022-11-27T22:34:44.089Z,4.35
2022-11-27T22:37:13.425Z,4.40
2022-11-27T22:39:44.406Z,4.43
2022-11-27T22:42:13.927Z,4.41
2022-11-27T22:44:43.314Z,4.38
2022-11-27T22:47:14.221Z,4.41
2022-11-27T22:49:43.583Z,4.42
2022-11-27T22:52:12.816Z,4.39
2022-11-27T22:54:42.356Z,4.40
2022-11-27T22:57:11.788Z,4.38
2022-11-27T22:59:41.077Z,4.33
2022-11-27T23:02:10.214Z,4.43
2022-11-27T23:04:41.831Z,4.40
2022-11-27T23:07:11.832Z,4.33
2022-11-27T23:09:40.958Z,4.36
2022-11-27T23:12:10.058Z,4.45
2022-11-27T23:14:39.720Z,4.40
2022-11-27T23:17:08.907Z,4.40
2022-11-27T23:19:38.473Z,4.42
2022-11-27T23:22:08.967Z,4.35
2022-11-27T23:24:38.093Z,4.42
2022-11-27T23:27:07.350Z,4.37
2022-11-27T23:29:36.494Z,4.43
2022-11-27T23:32:05.950Z,4.29
2022-11-27T23:34:35.068Z,4.45
2022-11-27T23:37:04.204Z,4.50
2022-11-27T23:39:34.785Z,4.46
2022-11-27T23:42:04.128Z,4.34
2022-11-27T23:44:33.267Z,4.40
2022-11-27T23:47:02.417Z,4.38
2022-11-27T23:49:31.534Z,4.34
2022-11-27T23:52:00.547Z,4.23
2022-11-27T23:54:29.676Z,4.22
2022-11-27T23:57:00.286Z,4.16
2022-11-27T23:59:29.476Z,4.18
